createdAt,value
2022-10-17T00:01:35.174Z,4.37
2022-10-17T00:04:12.991Z,4.53
2022-10-17T00:06:40.930Z,4.60
2022-10-17T00:09:09.588Z,5.30
2022-10-17T00:11:37.629Z,4.97
2022-10-17T00:14:05.352Z,4.27
2022-10-17T00:16:37.591Z,4.90
2022-10-17T00:19:06.260Z,3.70
2022-10-17T00:21:34.557Z,5.10
2022-10-17T00:24:02.762Z,4.07
2022-10-17T00:26:30.457Z,4.83
2022-10-17T00:28:58.185Z,5.07
2022-10-17T00:31:26.148Z,4.03
2022-10-17T00:33:55.217Z,4.87
2022-10-17T00:36:25.298Z,4.63
2022-10-17T00:38:55.397Z,5.70
2022-10-17T00:41:24.972Z,4.77
2022-10-17T00:43:55.334Z,4.27
2022-10-17T00:46:25.279Z,4.00
2022-10-17T00:48:56.996Z,4.10
2022-10-17T00:51:32.197Z,6.17
2022-10-17T00:54:01.899Z,4.73
2022-10-17T00:56:30.688Z,4.83
2022-10-17T00:59:00.019Z,4.40
2022-10-17T01:01:27.883Z,4.70
2022-10-17T01:03:56.889Z,4.83
2022-10-17T01:06:24.535Z,4.30
2022-10-17T01:08:52.349Z,4.70
2022-10-17T01:11:30.006Z,4.57
2022-10-17T01:14:03.949Z,4.30
2022-10-17T01:16:40.318Z,4.10
2022-10-17T01:19:27.672Z,4.80
2022-10-17T01:22:01.007Z,4.90
2022-10-17T01:24:56.771Z,4.40
2022-10-17T01:27:47.383Z,4.60
2022-10-17T01:30:42.276Z,5.00
2022-10-17T01:33:18.736Z,4.37
2022-10-17T01:35:53.923Z,5.57
2022-10-17T01:38:24.833Z,4.37
2022-10-17T01:41:00.084Z,4.13
2022-10-17T01:43:35.775Z,4.20
2022-10-17T01:46:13.817Z,4.30
2022-10-17T01:48:46.781Z,3.30
2022-10-17T01:51:19.703Z,4.10
2022-10-17T01:53:53.917Z,3.33
2022-10-17T01:56:24.969Z,3.00
2022-10-17T01:58:56.458Z,3.33
2022-10-17T02:01:27.098Z,3.03
2022-10-17T02:03:58.306Z,2.80
2022-10-17T02:06:26.530Z,3.07
2022-10-17T02:08:54.315Z,3.40
2022-10-17T02:11:24.996Z,2.90
2022-10-17T02:14:08.425Z,3.00
2022-10-17T02:16:43.694Z,2.73
2022-10-17T02:19:33.225Z,3.27
2022-10-17T02:22:11.986Z,3.10
2022-10-17T02:24:48.328Z,2.50
2022-10-17T02:27:20.941Z,2.27
2022-10-17T02:29:51.998Z,2.77
2022-10-17T02:32:26.336Z,2.13
2022-10-17T02:34:57.747Z,2.53
2022-10-17T02:37:30.065Z,3.00
2022-10-17T02:40:00.341Z,2.70
2022-10-17T02:42:29.931Z,2.50
2022-10-17T02:45:01.286Z,2.83
2022-10-17T02:47:35.850Z,2.50
2022-10-17T02:50:05.646Z,2.63
2022-10-17T02:52:38.399Z,2.17
2022-10-17T02:55:13.060Z,3.43
2022-10-17T02:57:45.857Z,2.30
2022-10-17T03:00:16.535Z,2.93
2022-10-17T03:02:49.294Z,2.77
2022-10-17T03:05:21.230Z,3.30
2022-10-17T03:07:48.920Z,2.67
2022-10-17T03:10:17.330Z,3.00
2022-10-17T03:12:45.252Z,2.90
2022-10-17T03:15:14.306Z,2.53
2022-10-17T03:17:42.675Z,2.83
2022-10-17T03:20:11.697Z,2.73
2022-10-17T03:22:40.722Z,2.63
2022-10-17T03:25:09.172Z,2.60
2022-10-17T03:27:37.742Z,2.17
2022-10-17T03:30:06.951Z,2.63
2022-10-17T03:32:36.706Z,2.43
2022-10-17T03:35:05.352Z,2.70
2022-10-17T03:37:33.086Z,2.40
2022-10-17T03:40:02.169Z,2.43
2022-10-17T03:42:30.272Z,1.50
2022-10-17T03:44:58.524Z,2.30
2022-10-17T03:47:26.503Z,2.83
2022-10-17T03:49:54.508Z,3.13
2022-10-17T03:52:22.563Z,2.90
2022-10-17T03:54:51.359Z,2.63
2022-10-17T03:57:20.935Z,3.33
2022-10-17T03:59:48.822Z,3.00
2022-10-17T04:02:19.805Z,3.03
2022-10-17T04:04:47.464Z,2.30
2022-10-17T04:07:15.153Z,2.93
2022-10-17T04:09:45.626Z,2.60
2022-10-17T04:12:21.668Z,2.73
2022-10-17T04:14:49.481Z,2.33
2022-10-17T04:17:17.891Z,3.43
2022-10-17T04:19:45.966Z,2.40
2022-10-17T04:22:15.920Z,3.07
2022-10-17T04:24:44.732Z,2.83
2022-10-17T04:27:29.418Z,2.67
2022-10-17T04:29:57.066Z,3.33
2022-10-17T04:32:26.636Z,3.13
2022-10-17T04:35:05.227Z,3.33
2022-10-17T04:37:33.310Z,2.87
2022-10-17T04:40:04.791Z,3.17
2022-10-17T04:42:34.988Z,2.80
2022-10-17T04:45:02.750Z,3.47
2022-10-17T04:47:30.506Z,3.17
2022-10-17T04:49:58.200Z,3.57
2022-10-17T04:52:26.596Z,2.60
2022-10-17T04:54:54.964Z,2.83
2022-10-17T04:57:22.906Z,2.70
2022-10-17T05:00:03.070Z,3.97
2022-10-17T05:03:00.034Z,3.40
2022-10-17T05:05:29.414Z,2.47
2022-10-17T05:07:58.023Z,3.73
2022-10-17T05:10:29.783Z,2.80
2022-10-17T05:12:58.857Z,3.30
2022-10-17T05:15:32.490Z,2.73
2022-10-17T05:18:00.286Z,3.67
2022-10-17T05:20:30.264Z,3.60
2022-10-17T05:22:59.766Z,2.87
2022-10-17T05:25:31.723Z,2.60
2022-10-17T05:27:59.398Z,2.63
2022-10-17T05:30:27.174Z,2.93
2022-10-17T05:33:00.747Z,2.57
2022-10-17T05:35:28.540Z,3.10
2022-10-17T05:37:56.909Z,2.93
2022-10-17T05:40:26.315Z,3.50
2022-10-17T05:42:55.277Z,3.00
2022-10-17T05:45:24.174Z,3.00
2022-10-17T05:47:51.946Z,3.00
2022-10-17T05:50:23.902Z,3.33
2022-10-17T05:53:05.739Z,2.93
2022-10-17T05:55:39.407Z,4.03
2022-10-17T05:58:09.776Z,3.33
2022-10-17T06:03:17.849Z,3.30
2022-10-17T06:05:47.516Z,3.83
2022-10-17T06:08:15.269Z,3.70
2022-10-17T06:10:44.067Z,3.30
2022-10-17T06:13:11.759Z,3.40
2022-10-17T06:15:41.406Z,3.90
2022-10-17T06:18:09.834Z,3.80
2022-10-17T06:20:38.125Z,3.60
2022-10-17T06:23:08.375Z,3.33
2022-10-17T06:26:03.029Z,3.87
2022-10-17T06:28:31.420Z,4.10
2022-10-17T06:30:59.268Z,4.17
2022-10-17T06:33:28.069Z,4.93
2022-10-17T06:35:57.439Z,4.20
2022-10-17T06:38:27.881Z,4.30
2022-10-17T06:41:04.851Z,4.40
2022-10-17T06:43:32.925Z,3.70
2022-10-17T06:46:26.809Z,4.17
2022-10-17T06:49:04.556Z,4.23
2022-10-17T06:51:52.837Z,3.67
2022-10-17T06:54:27.964Z,4.00
2022-10-17T06:57:21.471Z,3.40
2022-10-17T07:00:00.717Z,4.10
2022-10-17T07:02:35.572Z,4.07
2022-10-17T07:05:03.654Z,4.57
2022-10-17T07:07:31.991Z,5.20
2022-10-17T07:10:01.127Z,5.20
2022-10-17T07:12:28.806Z,3.77
2022-10-17T07:14:56.458Z,4.10
2022-10-17T07:17:24.209Z,5.37
2022-10-17T07:19:52.214Z,5.37
2022-10-17T07:22:19.947Z,5.20
2022-10-17T07:27:30.709Z,4.97
2022-10-17T07:29:59.926Z,4.40
2022-10-17T07:32:37.110Z,5.47
2022-10-17T07:35:06.285Z,5.23
2022-10-17T07:37:34.602Z,5.17
2022-10-17T07:40:03.049Z,4.30
2022-10-17T07:42:32.125Z,5.60
2022-10-17T07:45:00.491Z,4.90
2022-10-17T07:47:31.436Z,5.13
2022-10-17T07:50:00.398Z,4.60
2022-10-17T07:52:28.179Z,4.43
2022-10-17T07:54:56.077Z,4.10
2022-10-17T07:57:23.793Z,4.90
2022-10-17T07:59:54.212Z,4.57
2022-10-17T08:02:24.570Z,4.00
2022-10-17T08:04:52.582Z,4.87
2022-10-17T08:07:24.336Z,3.70
2022-10-17T08:09:54.666Z,4.17
2022-10-17T08:12:22.389Z,4.00
2022-10-17T08:14:50.196Z,4.70
2022-10-17T08:17:19.251Z,4.37
2022-10-17T08:19:46.907Z,3.73
2022-10-17T08:22:14.574Z,2.70
2022-10-17T08:24:42.784Z,3.87
2022-10-17T08:27:13.015Z,2.80
2022-10-17T08:29:41.008Z,3.47
2022-10-17T08:32:10.473Z,3.07
2022-10-17T08:34:39.549Z,3.30
2022-10-17T08:37:07.241Z,3.30
2022-10-17T08:39:34.930Z,3.60
2022-10-17T08:42:20.793Z,3.17
2022-10-17T08:44:58.186Z,3.60
2022-10-17T08:47:30.353Z,3.00
2022-10-17T08:50:03.741Z,2.90
2022-10-17T08:52:38.609Z,3.13
2022-10-17T08:55:16.277Z,2.73
2022-10-17T08:57:44.429Z,2.50
2022-10-17T09:00:18.685Z,2.00
2022-10-17T09:02:58.705Z,2.10
2022-10-17T09:05:36.714Z,1.90
2022-10-17T09:08:18.527Z,2.27
2022-10-17T09:10:56.953Z,2.60
2022-10-17T09:13:33.649Z,2.30
2022-10-17T09:16:12.067Z,2.37
2022-10-17T09:18:42.638Z,2.50
2022-10-17T09:21:21.806Z,2.13
2022-10-17T09:23:59.405Z,2.20
2022-10-17T09:26:38.271Z,2.30
2022-10-17T09:29:16.134Z,2.20
2022-10-17T09:31:48.309Z,2.47
2022-10-17T09:34:17.343Z,3.00
2022-10-17T09:36:46.499Z,2.83
2022-10-17T09:39:15.970Z,2.87
2022-10-17T09:41:47.211Z,2.90
2022-10-17T09:44:19.393Z,2.70
2022-10-17T09:47:03.860Z,2.30
2022-10-17T09:49:34.606Z,1.90
2022-10-17T09:52:05.463Z,2.27
2022-10-17T09:54:42.390Z,2.13
2022-10-17T09:57:12.416Z,2.30
2022-10-17T09:59:41.694Z,2.50
2022-10-17T10:02:15.651Z,2.13
2022-10-17T10:05:09.282Z,2.50
2022-10-17T10:07:39.895Z,2.60
2022-10-17T10:10:23.739Z,2.90
2022-10-17T10:13:05.861Z,2.10
2022-10-17T10:15:37.525Z,2.20
2022-10-17T10:18:31.921Z,2.27
2022-10-17T10:21:07.559Z,1.77
2022-10-17T10:23:39.961Z,1.73
2022-10-17T10:26:22.529Z,2.07
2022-10-17T10:28:58.058Z,1.83
2022-10-17T10:31:32.484Z,2.00
2022-10-17T10:34:03.275Z,1.50
2022-10-17T10:36:46.326Z,2.10
2022-10-17T10:39:28.450Z,1.80
2022-10-17T10:41:56.490Z,2.03
2022-10-17T10:44:29.481Z,2.33
2022-10-17T10:47:16.669Z,2.40
2022-10-17T10:49:45.158Z,1.80
2022-10-17T10:52:25.114Z,1.70
2022-10-17T10:55:03.901Z,1.63
2022-10-17T10:57:34.990Z,2.10
2022-10-17T11:00:13.871Z,1.60
2022-10-17T11:02:48.490Z,1.90
2022-10-17T11:05:21.785Z,2.00
2022-10-17T11:07:56.003Z,1.77
2022-10-17T11:10:33.313Z,1.93
2022-10-17T11:13:06.870Z,1.50
2022-10-17T11:15:41.404Z,1.77
2022-10-17T11:18:14.102Z,2.13
2022-10-17T11:20:51.576Z,2.13
2022-10-17T11:23:24.418Z,2.33
2022-10-17T11:25:55.970Z,1.43
2022-10-17T11:28:25.834Z,1.80
2022-10-17T11:30:57.684Z,2.00
2022-10-17T11:33:31.628Z,1.87
2022-10-17T11:36:04.996Z,2.37
2022-10-17T11:38:43.066Z,1.80
2022-10-17T11:41:18.201Z,1.80
2022-10-17T11:43:52.343Z,2.07
2022-10-17T11:46:23.734Z,2.10
2022-10-17T11:49:05.114Z,1.63
2022-10-17T11:54:33.257Z,1.70
2022-10-17T11:57:17.151Z,1.63
2022-10-17T11:59:58.462Z,1.43
2022-10-17T12:02:34.073Z,1.60
2022-10-17T12:05:08.650Z,3.03
2022-10-17T12:10:26.398Z,1.53
2022-10-17T12:12:55.426Z,1.60
2022-10-17T12:15:31.826Z,1.30
2022-10-17T12:18:02.616Z,1.60
2022-10-17T12:20:37.889Z,2.40
2022-10-17T12:23:26.619Z,1.87
2022-10-17T12:25:58.368Z,2.57
2022-10-17T12:28:33.959Z,1.77
2022-10-17T12:31:05.682Z,1.70
2022-10-17T12:33:36.233Z,1.33
2022-10-17T12:36:45.933Z,2.20
2022-10-17T12:39:51.296Z,1.70
2022-10-17T12:42:47.925Z,1.93
2022-10-17T12:45:47.898Z,1.80
2022-10-17T12:49:12.814Z,1.13
2022-10-17T12:52:29.516Z,1.40
2022-10-17T12:55:11.633Z,1.60
2022-10-17T12:57:45.502Z,1.20
2022-10-17T13:00:21.649Z,1.50
2022-10-17T13:02:53.052Z,1.50
2022-10-17T13:05:28.088Z,1.20
2022-10-17T13:07:57.548Z,1.30
2022-10-17T13:10:28.599Z,1.03
2022-10-17T13:13:06.328Z,2.37
2022-10-17T13:15:35.398Z,1.50
2022-10-17T13:18:04.900Z,1.40
2022-10-17T13:20:33.332Z,1.50
2022-10-17T13:23:01.036Z,1.43
2022-10-17T13:25:29.238Z,1.53
2022-10-17T13:28:13.507Z,2.10
2022-10-17T13:30:46.463Z,1.57
2022-10-17T13:33:29.974Z,1.60
2022-10-17T13:36:01.366Z,1.43
2022-10-17T13:38:34.168Z,1.07
2022-10-17T13:41:30.513Z,1.30
2022-10-17T13:43:53.053Z,1.50
2022-10-17T13:46:37.924Z,1.30
2022-10-17T13:49:17.768Z,1.23
2022-10-17T13:51:47.084Z,1.37
2022-10-17T13:54:19.578Z,1.20
2022-10-17T13:56:47.254Z,1.20
2022-10-17T13:59:23.562Z,1.20
2022-10-17T14:01:52.182Z,1.50
2022-10-17T14:04:21.376Z,1.53
2022-10-17T14:06:52.140Z,1.57
2022-10-17T14:09:25.097Z,1.50
2022-10-17T14:12:02.795Z,1.80
2022-10-17T14:14:46.083Z,1.63
2022-10-17T14:17:24.677Z,1.67
2022-10-17T14:20:14.200Z,1.73
2022-10-17T14:22:50.470Z,1.37
2022-10-17T14:25:30.758Z,1.40
2022-10-17T14:28:07.987Z,1.80
2022-10-17T14:30:55.852Z,1.67
2022-10-17T14:33:27.624Z,1.80
2022-10-17T14:35:58.813Z,1.40
2022-10-17T14:38:28.105Z,1.63
2022-10-17T14:41:23.588Z,1.17
2022-10-17T14:43:54.559Z,1.33
2022-10-17T14:46:22.448Z,1.73
2022-10-17T14:48:54.944Z,1.40
2022-10-17T14:51:24.010Z,1.60
2022-10-17T14:54:05.397Z,1.50
2022-10-17T14:56:40.748Z,1.37
2022-10-17T14:59:12.617Z,1.30
2022-10-17T15:01:45.879Z,1.50
2022-10-17T15:04:13.526Z,1.90
2022-10-17T15:06:42.912Z,1.60
2022-10-17T15:09:11.558Z,1.70
2022-10-17T15:11:39.398Z,1.30
2022-10-17T15:14:07.060Z,1.40
2022-10-17T15:16:35.835Z,1.10
2022-10-17T15:19:03.626Z,1.30
2022-10-17T15:21:39.517Z,1.40
2022-10-17T15:24:11.282Z,1.40
2022-10-17T15:26:39.132Z,1.50
2022-10-17T15:29:07.257Z,2.07
2022-10-17T15:31:35.872Z,2.10
2022-10-17T15:34:03.537Z,1.87
2022-10-17T15:36:35.107Z,2.70
2022-10-17T15:39:03.353Z,2.53
2022-10-17T15:41:33.483Z,3.07
2022-10-17T15:44:01.464Z,1.97
2022-10-17T15:46:31.345Z,1.80
2022-10-17T15:49:03.611Z,2.23
2022-10-17T15:51:31.294Z,2.10
2022-10-17T15:54:01.294Z,2.03
2022-10-17T15:56:31.600Z,1.90
2022-10-17T15:59:03.488Z,1.70
2022-10-17T16:01:32.599Z,1.80
2022-10-17T16:04:00.340Z,1.80
2022-10-17T16:06:28.237Z,2.40
2022-10-17T16:08:55.934Z,2.10
2022-10-17T16:11:29.815Z,2.30
2022-10-17T16:14:01.735Z,3.17
2022-10-17T16:16:29.659Z,2.20
2022-10-17T16:18:57.768Z,2.60
2022-10-17T16:24:02.505Z,2.50
2022-10-17T16:26:30.410Z,2.33
2022-10-17T16:29:02.531Z,2.60
2022-10-17T16:31:34.497Z,2.30
2022-10-17T16:34:04.577Z,2.87
2022-10-17T16:36:32.407Z,2.90
2022-10-17T16:39:00.119Z,2.60
2022-10-17T16:41:29.625Z,2.93
2022-10-17T16:43:59.849Z,3.60
2022-10-17T16:46:33.265Z,2.87
2022-10-17T16:49:01.332Z,3.10
2022-10-17T16:51:29.198Z,3.10
2022-10-17T16:54:00.092Z,2.80
2022-10-17T16:56:29.751Z,3.70
2022-10-17T16:58:57.560Z,3.53
2022-10-17T17:01:26.677Z,3.27
2022-10-17T17:03:57.627Z,4.10
2022-10-17T17:06:28.412Z,3.30
2022-10-17T17:08:57.193Z,3.40
2022-10-17T17:11:27.877Z,3.60
2022-10-17T17:13:57.992Z,4.10
2022-10-17T17:16:27.473Z,4.17
2022-10-17T17:18:57.513Z,4.43
2022-10-17T17:21:26.925Z,3.80
2022-10-17T17:23:57.191Z,4.60
2022-10-17T17:26:25.321Z,4.17
2022-10-17T17:28:53.456Z,4.90
2022-10-17T17:31:24.540Z,4.97
2022-10-17T17:33:53.188Z,4.47
2022-10-17T17:36:24.489Z,5.13
2022-10-17T17:38:54.621Z,5.53
2022-10-17T17:41:22.868Z,5.23
2022-10-17T17:43:52.348Z,4.67
2022-10-17T17:46:21.962Z,5.00
2022-10-17T17:48:50.770Z,4.97
2022-10-17T17:51:21.172Z,5.10
2022-10-17T17:53:52.348Z,5.03
2022-10-17T17:56:22.584Z,5.60
2022-10-17T17:58:55.739Z,4.90
2022-10-17T18:01:27.578Z,5.63
2022-10-17T18:03:56.511Z,6.10
2022-10-17T18:06:24.493Z,5.30
2022-10-17T18:08:55.392Z,5.30
2022-10-17T18:11:23.377Z,6.00
2022-10-17T18:13:55.595Z,5.80
2022-10-17T18:16:23.508Z,6.40
2022-10-17T18:18:51.330Z,7.53
2022-10-17T18:21:19.218Z,8.17
2022-10-17T18:23:50.272Z,6.67
2022-10-17T18:26:23.010Z,7.73
2022-10-17T18:28:53.266Z,6.97
2022-10-17T18:31:25.061Z,8.13
2022-10-17T18:33:53.776Z,6.77
2022-10-17T18:36:22.702Z,6.80
2022-10-17T18:38:51.979Z,6.83
2022-10-17T18:41:25.050Z,7.23
2022-10-17T18:43:54.411Z,7.40
2022-10-17T18:46:23.717Z,6.77
2022-10-17T18:48:51.872Z,6.77
2022-10-17T18:51:21.758Z,6.60
2022-10-17T18:53:52.103Z,6.53
2022-10-17T18:56:22.274Z,6.87
2022-10-17T18:58:50.318Z,6.30
2022-10-17T19:01:20.314Z,6.67
2022-10-17T19:03:49.788Z,7.23
2022-10-17T19:06:19.357Z,6.40
2022-10-17T19:08:47.161Z,7.47
2022-10-17T19:11:17.091Z,6.30
2022-10-17T19:13:47.889Z,6.43
2022-10-17T19:16:17.761Z,6.17
2022-10-17T19:18:50.644Z,5.50
2022-10-17T19:21:22.082Z,7.10
2022-10-17T19:23:52.337Z,6.50
2022-10-17T19:26:23.119Z,6.50
2022-10-17T19:28:53.782Z,7.27
2022-10-17T19:31:26.454Z,5.70
2022-10-17T19:33:56.129Z,6.40
2022-10-17T19:36:29.084Z,6.00
2022-10-17T19:39:01.475Z,5.77
2022-10-17T19:41:29.393Z,6.20
2022-10-17T19:43:58.488Z,6.00
2022-10-17T19:46:27.751Z,6.30
2022-10-17T19:48:56.123Z,5.70
2022-10-17T19:51:25.392Z,6.83
2022-10-17T19:53:54.057Z,6.57
2022-10-17T19:56:22.698Z,6.53
2022-10-17T19:58:51.804Z,6.80
2022-10-17T20:01:23.685Z,7.30
2022-10-17T20:03:52.300Z,6.77
2022-10-17T20:06:20.925Z,5.63
2022-10-17T20:08:49.741Z,6.40
2022-10-17T20:11:19.602Z,7.37
2022-10-17T20:13:47.687Z,6.77
2022-10-17T20:16:17.638Z,6.53
2022-10-17T20:18:47.778Z,5.50
2022-10-17T20:21:17.995Z,5.97
2022-10-17T20:23:47.776Z,6.60
2022-10-17T20:29:08.684Z,6.37
2022-10-17T20:31:37.728Z,7.23
2022-10-17T20:34:06.756Z,7.60
2022-10-17T20:36:37.075Z,8.60
2022-10-17T20:39:07.204Z,8.10
2022-10-17T20:41:35.488Z,7.83
2022-10-17T20:44:03.490Z,7.47
2022-10-17T20:46:44.703Z,8.10
2022-10-17T20:49:46.720Z,8.13
2022-10-17T20:52:14.418Z,7.30
2022-10-17T20:54:42.126Z,6.43
2022-10-17T20:57:09.949Z,7.47
2022-10-17T20:59:39.166Z,6.60
2022-10-17T21:02:07.533Z,6.77
2022-10-17T21:04:50.714Z,5.60
2022-10-17T21:07:21.110Z,6.20
2022-10-17T21:09:49.193Z,6.10
2022-10-17T21:12:25.988Z,6.17
2022-10-17T21:15:05.281Z,6.30
2022-10-17T21:17:33.038Z,6.13
2022-10-17T21:20:00.697Z,7.70
2022-10-17T21:22:30.080Z,7.33
2022-10-17T21:24:57.960Z,6.93
2022-10-17T21:27:25.622Z,6.60
2022-10-17T21:29:53.322Z,6.00
2022-10-17T21:32:40.063Z,6.13
2022-10-17T21:35:19.766Z,6.27
2022-10-17T21:37:48.829Z,6.53
2022-10-17T21:40:16.858Z,6.93
2022-10-17T21:42:44.494Z,7.07
2022-10-17T21:45:15.836Z,5.77
2022-10-17T21:48:11.064Z,5.97
2022-10-17T21:50:35.838Z,5.00
2022-10-17T21:53:05.008Z,6.80
2022-10-17T21:55:32.716Z,5.90
2022-10-17T21:58:00.368Z,6.13
2022-10-17T22:00:28.081Z,5.40
2022-10-17T22:02:55.791Z,5.60
2022-10-17T22:05:23.497Z,7.00
2022-10-17T22:07:51.295Z,5.90
2022-10-17T22:10:20.384Z,6.20
2022-10-17T22:12:48.067Z,6.40
2022-10-17T22:15:15.764Z,6.07
2022-10-17T22:17:43.421Z,5.23
2022-10-17T22:20:11.098Z,5.27
2022-10-17T22:22:38.784Z,5.33
2022-10-17T22:25:33.455Z,6.17
2022-10-17T22:28:01.171Z,4.97
2022-10-17T22:30:28.848Z,5.03
2022-10-17T22:32:56.573Z,4.90
2022-10-17T22:35:24.538Z,5.50
2022-10-17T22:37:52.293Z,4.90
2022-10-17T22:40:20.056Z,5.20
2022-10-17T22:42:49.124Z,4.97
2022-10-17T22:45:16.816Z,5.03
2022-10-17T22:47:44.514Z,4.50
2022-10-17T22:50:13.291Z,5.33
2022-10-17T22:52:41.158Z,5.40
2022-10-17T22:55:09.894Z,5.53
2022-10-17T22:57:37.599Z,5.43
2022-10-17T23:00:08.436Z,5.77
2022-10-17T23:02:36.281Z,5.23
2022-10-17T23:05:05.007Z,5.40
2022-10-17T23:07:33.292Z,5.57
2022-10-17T23:10:01.322Z,6.23
2022-10-17T23:12:29.276Z,4.90
2022-10-17T23:14:57.118Z,5.90
2022-10-17T23:17:26.268Z,5.10
2022-10-17T23:19:55.613Z,6.20
2022-10-17T23:22:25.423Z,4.50
2022-10-17T23:24:53.825Z,5.67
2022-10-17T23:27:21.527Z,4.60
2022-10-17T23:29:49.227Z,5.47
2022-10-17T23:32:16.940Z,4.93
2022-10-17T23:34:45.962Z,5.50
2022-10-17T23:37:13.702Z,5.53
2022-10-17T23:39:41.384Z,4.60
2022-10-17T23:42:09.059Z,5.07
2022-10-17T23:44:36.728Z,5.50
2022-10-17T23:47:04.444Z,4.07
2022-10-17T23:49:32.308Z,4.40
2022-10-17T23:52:01.412Z,4.90
2022-10-17T23:54:29.120Z,5.67
2022-10-17T23:56:56.824Z,5.07
2022-10-17T23:59:25.747Z,6.93
